sensor_id;sensor_type;location;lat;lon;timestamp;P1;durP1;ratioP1;P2;durP2;ratioP2
37517;SDS011;23366;52.498;13.446;2023-07-16T00:00:52;5.05;;;2.95;;
37517;SDS011;23366;52.498;13.446;2023-07-16T00:03:17;4.80;;;2.75;;
37517;SDS011;23366;52.498;13.446;2023-07-16T00:05:43;4.40;;;2.33;;
37517;SDS011;23366;52.498;13.446;2023-07-16T00:08:08;3.05;;;2.50;;
37517;SDS011;23366;52.498;13.446;2023-07-16T00:10:34;3.45;;;2.72;;
37517;SDS011;23366;52.498;13.446;2023-07-16T00:13:01;6.63;;;3.03;;
37517;SDS011;23366;52.498;13.446;2023-07-16T00:15:28;6.82;;;3.17;;
37517;SDS011;23366;52.498;13.446;2023-07-16T00:17:53;6.53;;;3.03;;
37517;SDS011;23366;52.498;13.446;2023-07-16T00:20:20;5.90;;;3.50;;
37517;SDS011;23366;52.498;13.446;2023-07-16T00:22:45;8.43;;;4.22;;
37517;SDS011;23366;52.498;13.446;2023-07-16T00:25:11;6.95;;;3.72;;
37517;SDS011;23366;52.498;13.446;2023-07-16T00:27:36;4.57;;;3.40;;
37517;SDS011;23366;52.498;13.446;2023-07-16T00:30:02;6.72;;;3.78;;
37517;SDS011;23366;52.498;13.446;2023-07-16T00:32:28;6.35;;;3.72;;
37517;SDS011;23366;52.498;13.446;2023-07-16T00:34:57;3.60;;;2.80;;
37517;SDS011;23366;52.498;13.446;2023-07-16T00:37:22;3.72;;;2.78;;
37517;SDS011;23366;52.498;13.446;2023-07-16T00:39:48;7.28;;;2.80;;
37517;SDS011;23366;52.498;13.446;2023-07-16T00:42:13;5.18;;;2.67;;
37517;SDS011;23366;52.498;13.446;2023-07-16T00:44:39;3.78;;;2.60;;
37517;SDS011;23366;52.498;13.446;2023-07-16T00:47:04;3.38;;;2.70;;
37517;SDS011;23366;52.498;13.446;2023-07-16T00:49:30;3.78;;;2.63;;
37517;SDS011;23366;52.498;13.446;2023-07-16T00:51:56;4.97;;;2.78;;
37517;SDS011;23366;52.498;13.446;2023-07-16T00:54:24;4.45;;;2.88;;
37517;SDS011;23366;52.498;13.446;2023-07-16T00:56:50;4.75;;;2.80;;
37517;SDS011;23366;52.498;13.446;2023-07-16T00:59:16;3.65;;;2.08;;
37517;SDS011;23366;52.498;13.446;2023-07-16T01:01:41;2.70;;;2.08;;
37517;SDS011;23366;52.498;13.446;2023-07-16T01:04:07;3.38;;;2.22;;
37517;SDS011;23366;52.498;13.446;2023-07-16T01:06:37;3.60;;;2.53;;
37517;SDS011;23366;52.498;13.446;2023-07-16T01:09:15;3.97;;;2.63;;
37517;SDS011;23366;52.498;13.446;2023-07-16T01:11:42;3.13;;;2.17;;
37517;SDS011;23366;52.498;13.446;2023-07-16T01:14:12;3.75;;;2.60;;
37517;SDS011;23366;52.498;13.446;2023-07-16T01:16:41;3.03;;;2.30;;
37517;SDS011;23366;52.498;13.446;2023-07-16T01:19:06;4.18;;;2.15;;
37517;SDS011;23366;52.498;13.446;2023-07-16T01:21:38;3.42;;;2.50;;
37517;SDS011;23366;52.498;13.446;2023-07-16T01:24:26;2.13;;;1.63;;
37517;SDS011;23366;52.498;13.446;2023-07-16T01:27:17;3.35;;;2.28;;
37517;SDS011;23366;52.498;13.446;2023-07-16T01:29:57;5.78;;;2.30;;
37517;SDS011;23366;52.498;13.446;2023-07-16T01:34:53;2.80;;;2.60;;
37517;SDS011;23366;52.498;13.446;2023-07-16T01:37:19;8.18;;;2.83;;
37517;SDS011;23366;52.498;13.446;2023-07-16T01:39:44;3.47;;;2.35;;
37517;SDS011;23366;52.498;13.446;2023-07-16T01:42:10;6.07;;;2.92;;
37517;SDS011;23366;52.498;13.446;2023-07-16T01:44:35;3.83;;;2.72;;
37517;SDS011;23366;52.498;13.446;2023-07-16T01:47:14;4.80;;;3.42;;
37517;SDS011;23366;52.498;13.446;2023-07-16T01:49:46;3.60;;;2.90;;
37517;SDS011;23366;52.498;13.446;2023-07-16T01:52:11;6.38;;;3.20;;
37517;SDS011;23366;52.498;13.446;2023-07-16T01:54:37;3.70;;;2.55;;
37517;SDS011;23366;52.498;13.446;2023-07-16T01:57:02;3.17;;;2.53;;
37517;SDS011;23366;52.498;13.446;2023-07-16T01:59:28;3.67;;;2.63;;
37517;SDS011;23366;52.498;13.446;2023-07-16T02:01:56;3.22;;;2.85;;
37517;SDS011;23366;52.498;13.446;2023-07-16T02:04:22;4.22;;;2.80;;
37517;SDS011;23366;52.498;13.446;2023-07-16T02:06:47;3.65;;;2.17;;
37517;SDS011;23366;52.498;13.446;2023-07-16T02:09:13;3.70;;;2.35;;
37517;SDS011;23366;52.498;13.446;2023-07-16T02:11:39;3.28;;;2.40;;
37517;SDS011;23366;52.498;13.446;2023-07-16T02:14:04;2.90;;;2.13;;
37517;SDS011;23366;52.498;13.446;2023-07-16T02:16:30;3.20;;;1.67;;
37517;SDS011;23366;52.498;13.446;2023-07-16T02:18:58;2.25;;;2.00;;
37517;SDS011;23366;52.498;13.446;2023-07-16T02:21:23;2.97;;;1.88;;
37517;SDS011;23366;52.498;13.446;2023-07-16T02:23:49;4.88;;;1.77;;
37517;SDS011;23366;52.498;13.446;2023-07-16T02:26:14;3.47;;;2.20;;
37517;SDS011;23366;52.498;13.446;2023-07-16T02:28:40;2.63;;;1.50;;
37517;SDS011;23366;52.498;13.446;2023-07-16T02:31:05;10.80;;;2.40;;
37517;SDS011;23366;52.498;13.446;2023-07-16T02:33:30;5.43;;;2.10;;
37517;SDS011;23366;52.498;13.446;2023-07-16T02:35:56;2.72;;;1.77;;
37517;SDS011;23366;52.498;13.446;2023-07-16T02:38:22;4.13;;;2.20;;
37517;SDS011;23366;52.498;13.446;2023-07-16T02:40:47;4.13;;;2.60;;
37517;SDS011;23366;52.498;13.446;2023-07-16T02:43:13;3.83;;;2.25;;
37517;SDS011;23366;52.498;13.446;2023-07-16T02:45:39;3.45;;;1.95;;
37517;SDS011;23366;52.498;13.446;2023-07-16T02:48:06;4.50;;;2.10;;
37517;SDS011;23366;52.498;13.446;2023-07-16T02:50:35;2.22;;;1.60;;
37517;SDS011;23366;52.498;13.446;2023-07-16T02:53:03;3.35;;;2.00;;
37517;SDS011;23366;52.498;13.446;2023-07-16T02:55:28;2.38;;;2.03;;
37517;SDS011;23366;52.498;13.446;2023-07-16T02:57:54;2.92;;;2.03;;
37517;SDS011;23366;52.498;13.446;2023-07-16T03:00:20;4.30;;;2.42;;
37517;SDS011;23366;52.498;13.446;2023-07-16T03:02:45;3.55;;;2.00;;
37517;SDS011;23366;52.498;13.446;2023-07-16T03:05:11;4.13;;;2.08;;
37517;SDS011;23366;52.498;13.446;2023-07-16T03:07:36;5.90;;;2.45;;
37517;SDS011;23366;52.498;13.446;2023-07-16T03:10:02;3.33;;;2.50;;
37517;SDS011;23366;52.498;13.446;2023-07-16T03:12:28;2.53;;;1.80;;
37517;SDS011;23366;52.498;13.446;2023-07-16T03:14:53;4.22;;;2.30;;
37517;SDS011;23366;52.498;13.446;2023-07-16T03:17:19;2.95;;;2.13;;
37517;SDS011;23366;52.498;13.446;2023-07-16T03:19:46;3.92;;;2.42;;
37517;SDS011;23366;52.498;13.446;2023-07-16T03:22:12;3.22;;;1.95;;
37517;SDS011;23366;52.498;13.446;2023-07-16T03:24:37;3.67;;;2.03;;
37517;SDS011;23366;52.498;13.446;2023-07-16T03:27:03;3.88;;;2.63;;
37517;SDS011;23366;52.498;13.446;2023-07-16T03:29:29;3.65;;;2.70;;
37517;SDS011;23366;52.498;13.446;2023-07-16T03:31:56;3.25;;;1.88;;
37517;SDS011;23366;52.498;13.446;2023-07-16T03:34:22;1.90;;;1.70;;
37517;SDS011;23366;52.498;13.446;2023-07-16T03:36:48;3.22;;;2.15;;
37517;SDS011;23366;52.498;13.446;2023-07-16T03:39:14;2.45;;;1.80;;
37517;SDS011;23366;52.498;13.446;2023-07-16T03:41:39;1.77;;;1.40;;
37517;SDS011;23366;52.498;13.446;2023-07-16T03:44:05;2.35;;;1.98;;
37517;SDS011;23366;52.498;13.446;2023-07-16T03:46:30;3.40;;;2.10;;
37517;SDS011;23366;52.498;13.446;2023-07-16T03:48:56;1.30;;;1.13;;
37517;SDS011;23366;52.498;13.446;2023-07-16T03:51:21;4.25;;;1.80;;
37517;SDS011;23366;52.498;13.446;2023-07-16T03:53:47;4.22;;;1.70;;
37517;SDS011;23366;52.498;13.446;2023-07-16T03:56:12;4.95;;;1.85;;
37517;SDS011;23366;52.498;13.446;2023-07-16T03:58:37;2.88;;;1.55;;
37517;SDS011;23366;52.498;13.446;2023-07-16T04:01:03;1.85;;;1.50;;
37517;SDS011;23366;52.498;13.446;2023-07-16T04:03:28;3.50;;;1.65;;
37517;SDS011;23366;52.498;13.446;2023-07-16T04:06:01;2.22;;;1.23;;
37517;SDS011;23366;52.498;13.446;2023-07-16T04:08:34;2.20;;;1.42;;
37517;SDS011;23366;52.498;13.446;2023-07-16T04:11:00;5.07;;;1.75;;
37517;SDS011;23366;52.498;13.446;2023-07-16T04:13:26;2.38;;;1.88;;
37517;SDS011;23366;52.498;13.446;2023-07-16T04:15:51;2.80;;;1.85;;
37517;SDS011;23366;52.498;13.446;2023-07-16T04:18:19;2.15;;;1.52;;
37517;SDS011;23366;52.498;13.446;2023-07-16T04:20:46;2.53;;;1.77;;
37517;SDS011;23366;52.498;13.446;2023-07-16T04:23:12;3.15;;;1.65;;
37517;SDS011;23366;52.498;13.446;2023-07-16T04:25:37;1.80;;;1.30;;
37517;SDS011;23366;52.498;13.446;2023-07-16T04:28:03;2.70;;;1.65;;
37517;SDS011;23366;52.498;13.446;2023-07-16T04:30:29;2.92;;;1.92;;
37517;SDS011;23366;52.498;13.446;2023-07-16T04:32:54;2.25;;;1.52;;
37517;SDS011;23366;52.498;13.446;2023-07-16T04:35:20;2.58;;;1.42;;
37517;SDS011;23366;52.498;13.446;2023-07-16T04:37:45;1.77;;;1.30;;
37517;SDS011;23366;52.498;13.446;2023-07-16T04:40:11;2.53;;;1.60;;
37517;SDS011;23366;52.498;13.446;2023-07-16T04:42:36;4.38;;;1.60;;
37517;SDS011;23366;52.498;13.446;2023-07-16T04:45:02;3.05;;;1.55;;
37517;SDS011;23366;52.498;13.446;2023-07-16T04:47:29;3.33;;;2.00;;
37517;SDS011;23366;52.498;13.446;2023-07-16T04:49:54;1.33;;;1.17;;
37517;SDS011;23366;52.498;13.446;2023-07-16T04:52:19;1.60;;;1.50;;
37517;SDS011;23366;52.498;13.446;2023-07-16T04:54:45;5.75;;;2.33;;
37517;SDS011;23366;52.498;13.446;2023-07-16T04:57:10;5.18;;;2.22;;
37517;SDS011;23366;52.498;13.446;2023-07-16T04:59:36;3.55;;;1.65;;
37517;SDS011;23366;52.498;13.446;2023-07-16T05:02:02;5.75;;;2.28;;
37517;SDS011;23366;52.498;13.446;2023-07-16T05:04:30;2.80;;;1.70;;
37517;SDS011;23366;52.498;13.446;2023-07-16T05:06:55;4.57;;;1.92;;
37517;SDS011;23366;52.498;13.446;2023-07-16T05:09:21;2.50;;;1.83;;
37517;SDS011;23366;52.498;13.446;2023-07-16T05:11:46;2.53;;;2.28;;
37517;SDS011;23366;52.498;13.446;2023-07-16T05:14:12;2.60;;;1.67;;
37517;SDS011;23366;52.498;13.446;2023-07-16T05:16:37;1.85;;;1.70;;
37517;SDS011;23366;52.498;13.446;2023-07-16T05:19:02;4.80;;;1.95;;
37517;SDS011;23366;52.498;13.446;2023-07-16T05:21:28;3.50;;;1.67;;
37517;SDS011;23366;52.498;13.446;2023-07-16T05:23:53;3.33;;;2.45;;
37517;SDS011;23366;52.498;13.446;2023-07-16T05:26:19;3.35;;;2.28;;
37517;SDS011;23366;52.498;13.446;2023-07-16T05:28:44;2.42;;;1.75;;
37517;SDS011;23366;52.498;13.446;2023-07-16T05:31:10;2.17;;;1.92;;
37517;SDS011;23366;52.498;13.446;2023-07-16T05:33:35;4.38;;;2.13;;
37517;SDS011;23366;52.498;13.446;2023-07-16T05:36:01;2.60;;;2.28;;
37517;SDS011;23366;52.498;13.446;2023-07-16T05:38:26;1.73;;;1.40;;
37517;SDS011;23366;52.498;13.446;2023-07-16T05:40:52;1.75;;;1.23;;
37517;SDS011;23366;52.498;13.446;2023-07-16T05:43:17;5.78;;;1.92;;
37517;SDS011;23366;52.498;13.446;2023-07-16T05:45:43;2.08;;;1.38;;
37517;SDS011;23366;52.498;13.446;2023-07-16T05:48:09;0.95;;;0.93;;
37517;SDS011;23366;52.498;13.446;2023-07-16T05:50:34;2.00;;;1.38;;
37517;SDS011;23366;52.498;13.446;2023-07-16T05:52:59;1.38;;;1.20;;
37517;SDS011;23366;52.498;13.446;2023-07-16T05:55:25;11.65;;;2.05;;
37517;SDS011;23366;52.498;13.446;2023-07-16T05:57:50;1.42;;;1.30;;
37517;SDS011;23366;52.498;13.446;2023-07-16T06:00:16;1.48;;;1.00;;
37517;SDS011;23366;52.498;13.446;2023-07-16T06:02:42;1.23;;;1.13;;
37517;SDS011;23366;52.498;13.446;2023-07-16T06:05:08;5.55;;;1.52;;
37517;SDS011;23366;52.498;13.446;2023-07-16T06:07:34;1.10;;;1.00;;
37517;SDS011;23366;52.498;13.446;2023-07-16T06:09:59;2.15;;;1.02;;
37517;SDS011;23366;52.498;13.446;2023-07-16T06:12:25;1.35;;;0.93;;
37517;SDS011;23366;52.498;13.446;2023-07-16T06:14:51;1.17;;;0.85;;
37517;SDS011;23366;52.498;13.446;2023-07-16T06:17:16;2.88;;;1.13;;
37517;SDS011;23366;52.498;13.446;2023-07-16T06:19:42;2.10;;;0.65;;
37517;SDS011;23366;52.498;13.446;2023-07-16T06:22:07;1.48;;;1.00;;
37517;SDS011;23366;52.498;13.446;2023-07-16T06:24:34;3.90;;;1.30;;
37517;SDS011;23366;52.498;13.446;2023-07-16T06:27:02;1.33;;;0.80;;
37517;SDS011;23366;52.498;13.446;2023-07-16T06:29:27;1.55;;;0.98;;
37517;SDS011;23366;52.498;13.446;2023-07-16T06:32:02;3.28;;;1.10;;
37517;SDS011;23366;52.498;13.446;2023-07-16T06:34:27;1.63;;;1.38;;
37517;SDS011;23366;52.498;13.446;2023-07-16T06:36:53;0.60;;;0.60;;
37517;SDS011;23366;52.498;13.446;2023-07-16T06:39:19;1.13;;;1.00;;
37517;SDS011;23366;52.498;13.446;2023-07-16T06:41:45;1.55;;;0.88;;
37517;SDS011;23366;52.498;13.446;2023-07-16T06:44:10;0.80;;;0.75;;
37517;SDS011;23366;52.498;13.446;2023-07-16T06:46:36;0.55;;;0.55;;
37517;SDS011;23366;52.498;13.446;2023-07-16T06:49:01;1.23;;;0.77;;
37517;SDS011;23366;52.498;13.446;2023-07-16T06:51:27;1.20;;;0.77;;
37517;SDS011;23366;52.498;13.446;2023-07-16T06:53:54;2.17;;;0.90;;
37517;SDS011;23366;52.498;13.446;2023-07-16T06:56:20;1.52;;;1.25;;
37517;SDS011;23366;52.498;13.446;2023-07-16T06:58:45;0.80;;;0.50;;
37517;SDS011;23366;52.498;13.446;2023-07-16T07:01:10;2.97;;;0.80;;
37517;SDS011;23366;52.498;13.446;2023-07-16T07:03:36;2.45;;;0.98;;
37517;SDS011;23366;52.498;13.446;2023-07-16T07:06:05;0.70;;;0.70;;
37517;SDS011;23366;52.498;13.446;2023-07-16T07:08:30;1.35;;;0.70;;
37517;SDS011;23366;52.498;13.446;2023-07-16T07:10:56;0.95;;;0.75;;
37517;SDS011;23366;52.498;13.446;2023-07-16T07:13:24;0.68;;;0.60;;
37517;SDS011;23366;52.498;13.446;2023-07-16T07:15:49;1.45;;;0.80;;
37517;SDS011;23366;52.498;13.446;2023-07-16T07:18:15;2.13;;;1.10;;
37517;SDS011;23366;52.498;13.446;2023-07-16T07:20:40;1.25;;;0.88;;
37517;SDS011;23366;52.498;13.446;2023-07-16T07:23:06;1.70;;;0.90;;
37517;SDS011;23366;52.498;13.446;2023-07-16T07:25:32;1.05;;;0.70;;
37517;SDS011;23366;52.498;13.446;2023-07-16T07:27:57;1.20;;;1.10;;
37517;SDS011;23366;52.498;13.446;2023-07-16T07:30:23;0.90;;;0.73;;
37517;SDS011;23366;52.498;13.446;2023-07-16T07:32:48;1.60;;;0.95;;
37517;SDS011;23366;52.498;13.446;2023-07-16T07:35:14;0.93;;;0.82;;
37517;SDS011;23366;52.498;13.446;2023-07-16T07:37:40;1.23;;;0.93;;
37517;SDS011;23366;52.498;13.446;2023-07-16T07:40:05;1.58;;;1.05;;
37517;SDS011;23366;52.498;13.446;2023-07-16T07:42:32;1.63;;;1.10;;
37517;SDS011;23366;52.498;13.446;2023-07-16T07:44:58;2.42;;;1.30;;
37517;SDS011;23366;52.498;13.446;2023-07-16T07:47:23;1.23;;;1.05;;
37517;SDS011;23366;52.498;13.446;2023-07-16T07:49:49;5.57;;;1.10;;
37517;SDS011;23366;52.498;13.446;2023-07-16T07:52:15;1.55;;;1.20;;
37517;SDS011;23366;52.498;13.446;2023-07-16T07:54:41;2.70;;;1.83;;
37517;SDS011;23366;52.498;13.446;2023-07-16T07:57:06;4.53;;;1.48;;
37517;SDS011;23366;52.498;13.446;2023-07-16T07:59:32;2.88;;;1.50;;
37517;SDS011;23366;52.498;13.446;2023-07-16T08:01:58;1.35;;;0.90;;
37517;SDS011;23366;52.498;13.446;2023-07-16T08:04:24;1.63;;;1.52;;
37517;SDS011;23366;52.498;13.446;2023-07-16T08:06:50;4.72;;;1.67;;
37517;SDS011;23366;52.498;13.446;2023-07-16T08:09:16;2.20;;;1.33;;
37517;SDS011;23366;52.498;13.446;2023-07-16T08:11:42;5.28;;;1.63;;
37517;SDS011;23366;52.498;13.446;2023-07-16T08:14:07;2.85;;;0.80;;
37517;SDS011;23366;52.498;13.446;2023-07-16T08:16:33;1.98;;;0.85;;
37517;SDS011;23366;52.498;13.446;2023-07-16T08:18:58;1.40;;;1.13;;
37517;SDS011;23366;52.498;13.446;2023-07-16T08:21:24;1.77;;;1.10;;
37517;SDS011;23366;52.498;13.446;2023-07-16T08:23:49;2.20;;;1.10;;
37517;SDS011;23366;52.498;13.446;2023-07-16T08:26:16;1.10;;;0.80;;
37517;SDS011;23366;52.498;13.446;2023-07-16T08:28:42;1.88;;;0.90;;
37517;SDS011;23366;52.498;13.446;2023-07-16T08:31:07;1.15;;;0.70;;
37517;SDS011;23366;52.498;13.446;2023-07-16T08:33:36;2.08;;;0.85;;
37517;SDS011;23366;52.498;13.446;2023-07-16T08:36:01;0.70;;;0.35;;
37517;SDS011;23366;52.498;13.446;2023-07-16T08:38:27;1.80;;;1.20;;
37517;SDS011;23366;52.498;13.446;2023-07-16T08:40:52;1.98;;;0.90;;
37517;SDS011;23366;52.498;13.446;2023-07-16T08:43:18;2.88;;;1.27;;
37517;SDS011;23366;52.498;13.446;2023-07-16T08:45:45;1.00;;;0.70;;
37517;SDS011;23366;52.498;13.446;2023-07-16T08:48:11;1.00;;;0.50;;
37517;SDS011;23366;52.498;13.446;2023-07-16T08:50:37;1.73;;;0.80;;
37517;SDS011;23366;52.498;13.446;2023-07-16T08:53:06;2.20;;;0.90;;
37517;SDS011;23366;52.498;13.446;2023-07-16T08:55:32;1.20;;;0.65;;
37517;SDS011;23366;52.498;13.446;2023-07-16T08:57:58;0.95;;;0.60;;
37517;SDS011;23366;52.498;13.446;2023-07-16T09:00:25;1.40;;;0.90;;
37517;SDS011;23366;52.498;13.446;2023-07-16T09:02:52;1.63;;;0.90;;
37517;SDS011;23366;52.498;13.446;2023-07-16T09:05:19;1.42;;;0.70;;
37517;SDS011;23366;52.498;13.446;2023-07-16T09:07:46;1.77;;;0.65;;
37517;SDS011;23366;52.498;13.446;2023-07-16T09:10:12;1.23;;;0.50;;
37517;SDS011;23366;52.498;13.446;2023-07-16T09:12:44;1.20;;;0.80;;
37517;SDS011;23366;52.498;13.446;2023-07-16T09:15:11;0.98;;;0.88;;
37517;SDS011;23366;52.498;13.446;2023-07-16T09:17:41;1.50;;;0.73;;
37517;SDS011;23366;52.498;13.446;2023-07-16T09:20:07;2.15;;;0.82;;
37517;SDS011;23366;52.498;13.446;2023-07-16T09:22:33;2.58;;;0.65;;
37517;SDS011;23366;52.498;13.446;2023-07-16T09:24:59;0.75;;;0.50;;
37517;SDS011;23366;52.498;13.446;2023-07-16T09:27:29;0.95;;;0.70;;
37517;SDS011;23366;52.498;13.446;2023-07-16T09:29:56;1.10;;;0.82;;
37517;SDS011;23366;52.498;13.446;2023-07-16T09:32:21;0.82;;;0.45;;
37517;SDS011;23366;52.498;13.446;2023-07-16T09:34:49;2.70;;;0.98;;
37517;SDS011;23366;52.498;13.446;2023-07-16T09:39:43;3.90;;;1.05;;
37517;SDS011;23366;52.498;13.446;2023-07-16T09:42:10;1.75;;;0.85;;
37517;SDS011;23366;52.498;13.446;2023-07-16T09:44:36;1.63;;;0.95;;
37517;SDS011;23366;52.498;13.446;2023-07-16T09:47:02;1.38;;;0.90;;
37517;SDS011;23366;52.498;13.446;2023-07-16T09:49:28;1.58;;;0.65;;
37517;SDS011;23366;52.498;13.446;2023-07-16T09:51:56;2.15;;;0.70;;
37517;SDS011;23366;52.498;13.446;2023-07-16T09:54:23;2.17;;;1.23;;
37517;SDS011;23366;52.498;13.446;2023-07-16T09:56:51;1.45;;;0.98;;
37517;SDS011;23366;52.498;13.446;2023-07-16T09:59:24;2.70;;;1.15;;
37517;SDS011;23366;52.498;13.446;2023-07-16T10:01:52;2.38;;;1.20;;
37517;SDS011;23366;52.498;13.446;2023-07-16T10:04:20;1.77;;;1.10;;
37517;SDS011;23366;52.498;13.446;2023-07-16T10:06:49;3.20;;;1.48;;
37517;SDS011;23366;52.498;13.446;2023-07-16T10:14:45;2.78;;;1.80;;
37517;SDS011;23366;52.498;13.446;2023-07-16T10:17:22;2.22;;;1.23;;
37517;SDS011;23366;52.498;13.446;2023-07-16T10:19:54;1.15;;;0.77;;
37517;SDS011;23366;52.498;13.446;2023-07-16T10:22:32;2.85;;;1.30;;
37517;SDS011;23366;52.498;13.446;2023-07-16T10:24:58;1.45;;;0.98;;
37517;SDS011;23366;52.498;13.446;2023-07-16T10:27:32;1.85;;;1.00;;
37517;SDS011;23366;52.498;13.446;2023-07-16T10:29:58;1.95;;;1.30;;
37517;SDS011;23366;52.498;13.446;2023-07-16T10:32:30;3.17;;;1.40;;
37517;SDS011;23366;52.498;13.446;2023-07-16T10:34:56;2.30;;;0.88;;
37517;SDS011;23366;52.498;13.446;2023-07-16T10:37:26;1.80;;;1.05;;
37517;SDS011;23366;52.498;13.446;2023-07-16T10:39:53;5.43;;;1.00;;
37517;SDS011;23366;52.498;13.446;2023-07-16T10:42:20;2.63;;;0.82;;
37517;SDS011;23366;52.498;13.446;2023-07-16T10:44:48;2.13;;;1.17;;
37517;SDS011;23366;52.498;13.446;2023-07-16T10:47:19;1.60;;;1.00;;
37517;SDS011;23366;52.498;13.446;2023-07-16T10:49:49;1.98;;;0.90;;
37517;SDS011;23366;52.498;13.446;2023-07-16T10:52:17;1.05;;;0.77;;
37517;SDS011;23366;52.498;13.446;2023-07-16T10:54:43;3.58;;;1.10;;
37517;SDS011;23366;52.498;13.446;2023-07-16T10:57:08;2.50;;;1.25;;
37517;SDS011;23366;52.498;13.446;2023-07-16T10:59:37;2.97;;;1.25;;
37517;SDS011;23366;52.498;13.446;2023-07-16T11:02:04;2.03;;;1.20;;
37517;SDS011;23366;52.498;13.446;2023-07-16T11:04:33;2.50;;;1.13;;
37517;SDS011;23366;52.498;13.446;2023-07-16T11:07:05;2.83;;;1.30;;
37517;SDS011;23366;52.498;13.446;2023-07-16T11:09:40;2.33;;;1.23;;
37517;SDS011;23366;52.498;13.446;2023-07-16T11:12:08;1.92;;;1.17;;
37517;SDS011;23366;52.498;13.446;2023-07-16T11:14:35;1.95;;;1.30;;
37517;SDS011;23366;52.498;13.446;2023-07-16T11:17:07;7.03;;;1.60;;
37517;SDS011;23366;52.498;13.446;2023-07-16T11:19:34;3.22;;;1.42;;
37517;SDS011;23366;52.498;13.446;2023-07-16T11:22:01;4.32;;;1.35;;
37517;SDS011;23366;52.498;13.446;2023-07-16T11:24:28;4.22;;;1.30;;
37517;SDS011;23366;52.498;13.446;2023-07-16T11:27:00;2.25;;;1.30;;
37517;SDS011;23366;52.498;13.446;2023-07-16T11:29:26;2.78;;;1.15;;
37517;SDS011;23366;52.498;13.446;2023-07-16T11:31:59;8.88;;;2.00;;
37517;SDS011;23366;52.498;13.446;2023-07-16T11:34:25;4.22;;;1.00;;
37517;SDS011;23366;52.498;13.446;2023-07-16T11:36:50;1.42;;;0.90;;
37517;SDS011;23366;52.498;13.446;2023-07-16T11:39:16;1.95;;;1.15;;
37517;SDS011;23366;52.498;13.446;2023-07-16T11:41:41;2.38;;;1.00;;
37517;SDS011;23366;52.498;13.446;2023-07-16T11:44:07;3.00;;;1.45;;
37517;SDS011;23366;52.498;13.446;2023-07-16T11:46:34;2.78;;;1.02;;
37517;SDS011;23366;52.498;13.446;2023-07-16T11:49:00;5.00;;;1.20;;
37517;SDS011;23366;52.498;13.446;2023-07-16T11:51:26;3.10;;;1.17;;
37517;SDS011;23366;52.498;13.446;2023-07-16T11:53:52;1.10;;;1.00;;
37517;SDS011;23366;52.498;13.446;2023-07-16T11:56:18;2.33;;;1.25;;
37517;SDS011;23366;52.498;13.446;2023-07-16T11:58:44;3.47;;;1.65;;
37517;SDS011;23366;52.498;13.446;2023-07-16T12:01:09;5.43;;;1.08;;
37517;SDS011;23366;52.498;13.446;2023-07-16T12:03:35;2.47;;;0.75;;
37517;SDS011;23366;52.498;13.446;2023-07-16T12:06:00;2.42;;;1.38;;
37517;SDS011;23366;52.498;13.446;2023-07-16T12:08:29;2.35;;;1.15;;
37517;SDS011;23366;52.498;13.446;2023-07-16T12:10:54;2.10;;;1.00;;
37517;SDS011;23366;52.498;13.446;2023-07-16T12:13:20;1.63;;;1.10;;
37517;SDS011;23366;52.498;13.446;2023-07-16T12:15:45;2.03;;;1.27;;
37517;SDS011;23366;52.498;13.446;2023-07-16T12:18:13;3.30;;;1.20;;
37517;SDS011;23366;52.498;13.446;2023-07-16T12:20:39;1.58;;;0.70;;
37517;SDS011;23366;52.498;13.446;2023-07-16T12:23:04;2.33;;;1.08;;
37517;SDS011;23366;52.498;13.446;2023-07-16T12:25:30;3.55;;;1.42;;
37517;SDS011;23366;52.498;13.446;2023-07-16T12:27:55;3.55;;;1.50;;
37517;SDS011;23366;52.498;13.446;2023-07-16T12:30:22;1.58;;;1.10;;
37517;SDS011;23366;52.498;13.446;2023-07-16T12:32:48;2.38;;;1.33;;
37517;SDS011;23366;52.498;13.446;2023-07-16T12:35:14;2.85;;;1.67;;
37517;SDS011;23366;52.498;13.446;2023-07-16T12:37:41;2.13;;;1.50;;
37517;SDS011;23366;52.498;13.446;2023-07-16T12:40:07;2.92;;;1.40;;
37517;SDS011;23366;52.498;13.446;2023-07-16T12:42:33;3.60;;;1.58;;
37517;SDS011;23366;52.498;13.446;2023-07-16T12:45:02;3.03;;;1.05;;
37517;SDS011;23366;52.498;13.446;2023-07-16T12:47:28;3.25;;;1.52;;
37517;SDS011;23366;52.498;13.446;2023-07-16T12:49:53;5.18;;;1.38;;
37517;SDS011;23366;52.498;13.446;2023-07-16T12:52:19;2.38;;;1.48;;
37517;SDS011;23366;52.498;13.446;2023-07-16T12:54:44;5.00;;;1.50;;
37517;SDS011;23366;52.498;13.446;2023-07-16T12:57:10;3.53;;;1.50;;
37517;SDS011;23366;52.498;13.446;2023-07-16T12:59:36;2.67;;;1.15;;
37517;SDS011;23366;52.498;13.446;2023-07-16T13:02:01;2.72;;;1.33;;
37517;SDS011;23366;52.498;13.446;2023-07-16T13:04:27;2.97;;;1.10;;
37517;SDS011;23366;52.498;13.446;2023-07-16T13:06:53;2.42;;;1.27;;
37517;SDS011;23366;52.498;13.446;2023-07-16T13:09:18;2.20;;;1.02;;
37517;SDS011;23366;52.498;13.446;2023-07-16T13:11:44;2.28;;;1.23;;
37517;SDS011;23366;52.498;13.446;2023-07-16T13:14:09;2.15;;;1.15;;
37517;SDS011;23366;52.498;13.446;2023-07-16T13:16:35;3.60;;;1.77;;
37517;SDS011;23366;52.498;13.446;2023-07-16T13:19:00;2.17;;;1.35;;
37517;SDS011;23366;52.498;13.446;2023-07-16T13:21:26;2.20;;;1.25;;
37517;SDS011;23366;52.498;13.446;2023-07-16T13:23:51;2.65;;;1.15;;
37517;SDS011;23366;52.498;13.446;2023-07-16T13:26:17;2.75;;;1.33;;
37517;SDS011;23366;52.498;13.446;2023-07-16T13:28:42;1.40;;;0.90;;
37517;SDS011;23366;52.498;13.446;2023-07-16T13:31:08;1.83;;;1.45;;
37517;SDS011;23366;52.498;13.446;2023-07-16T13:33:33;2.67;;;1.10;;
37517;SDS011;23366;52.498;13.446;2023-07-16T13:36:01;2.88;;;1.25;;
37517;SDS011;23366;52.498;13.446;2023-07-16T13:38:29;4.78;;;1.55;;
37517;SDS011;23366;52.498;13.446;2023-07-16T13:40:55;2.08;;;1.23;;
37517;SDS011;23366;52.498;13.446;2023-07-16T13:43:21;7.15;;;2.50;;
37517;SDS011;23366;52.498;13.446;2023-07-16T13:45:46;8.10;;;4.28;;
37517;SDS011;23366;52.498;13.446;2023-07-16T13:48:12;10.45;;;5.78;;
37517;SDS011;23366;52.498;13.446;2023-07-16T13:50:37;4.65;;;2.58;;
37517;SDS011;23366;52.498;13.446;2023-07-16T13:53:03;3.97;;;1.60;;
37517;SDS011;23366;52.498;13.446;2023-07-16T13:55:31;3.42;;;1.73;;
37517;SDS011;23366;52.498;13.446;2023-07-16T13:57:56;8.60;;;2.63;;
37517;SDS011;23366;52.498;13.446;2023-07-16T14:00:22;3.75;;;2.00;;
37517;SDS011;23366;52.498;13.446;2023-07-16T14:02:48;1.88;;;1.05;;
37517;SDS011;23366;52.498;13.446;2023-07-16T14:05:13;6.03;;;2.10;;
37517;SDS011;23366;52.498;13.446;2023-07-16T14:07:39;2.35;;;1.50;;
37517;SDS011;23366;52.498;13.446;2023-07-16T14:10:04;2.90;;;1.40;;
37517;SDS011;23366;52.498;13.446;2023-07-16T14:12:30;2.25;;;0.95;;
37517;SDS011;23366;52.498;13.446;2023-07-16T14:14:56;10.20;;;5.20;;
37517;SDS011;23366;52.498;13.446;2023-07-16T14:17:21;6.20;;;2.13;;
37517;SDS011;23366;52.498;13.446;2023-07-16T14:19:48;2.15;;;1.35;;
37517;SDS011;23366;52.498;13.446;2023-07-16T14:22:15;2.38;;;1.30;;
37517;SDS011;23366;52.498;13.446;2023-07-16T14:24:40;2.05;;;1.13;;
37517;SDS011;23366;52.498;13.446;2023-07-16T14:27:07;4.38;;;1.45;;
37517;SDS011;23366;52.498;13.446;2023-07-16T14:29:33;2.38;;;1.30;;
37517;SDS011;23366;52.498;13.446;2023-07-16T14:31:59;1.63;;;1.20;;
37517;SDS011;23366;52.498;13.446;2023-07-16T14:34:25;1.70;;;1.23;;
37517;SDS011;23366;52.498;13.446;2023-07-16T14:36:51;1.33;;;0.70;;
37517;SDS011;23366;52.498;13.446;2023-07-16T14:39:17;0.98;;;0.73;;